Time;durP1;ratioP1;P1;durP2;ratioP2;P2;SDS_P1;SDS_P2;PMS_P1;PMS_P2;Temp;Humidity;BMP_temperature;BMP_pressure;BME280_temperature;BME280_humidity;BME280_pressure;Samples;Min_cycle;Max_cycle;Signal;HPM_P1;HPM_P2
2021/12/06 00:01:52;;;;;;;;;;;;;;;6.15;59.52;98577.75;4400885;32;19973;-92
2021/12/06 00:04:32;;;;;;;;;;;;;;;6.10;59.52;98583.09;4400044;32;20009;-91
2021/12/06 00:07:00;;;;;;;;;;;;;;;6.14;59.52;98601.91;4400481;32;19962;-92
2021/12/06 00:09:25;;;;;;;;;;;;;;;6.12;59.51;98603.69;4397693;32;19986;-93
2021/12/06 00:11:56;;;;;;;;;;;;;;;6.12;59.51;98612.28;4398340;32;19982;-90
2021/12/06 00:14:27;;;;;;;;;;;;;;;6.06;59.52;98606.47;4397546;32;19990;-89
2021/12/06 00:16:52;;;;;;;;;;;;;;;6.19;59.52;98610.38;4397691;32;19994;-90
2021/12/06 00:19:17;;;;;;;;;;;;;;;6.11;59.51;98612.34;4397412;32;20316;-90
2021/12/06 00:21:43;;;;;;;;;;;;;;;6.07;59.52;98615.91;4397500;32;19998;-91
2021/12/06 00:24:08;;;;;;;;;;;;;;;6.08;59.52;98612.44;4396931;32;20426;-90
2021/12/06 00:26:33;;;;;;;;;;;;;;;6.14;59.52;98604.50;4397577;32;20024;-91
2021/12/06 00:28:58;;;;;;;;;;;;;;;5.89;59.50;98600.97;4399026;32;20054;-88
2021/12/06 00:31:24;;;;;;;;;;;;;;;5.92;59.51;98603.50;4398566;32;19981;-89
2021/12/06 00:33:58;;;;;;;;;;;;;;;5.92;59.50;98612.09;4399715;32;20034;-89
2021/12/06 00:36:28;;;;;;;;;;;;;;;5.81;59.50;98612.38;4405042;32;19985;-89
2021/12/06 00:38:53;;;;;;;;;;;;;;;5.78;59.50;98617.66;4402281;32;20332;-89
2021/12/06 00:41:18;;;;;;;;;;;;;;;5.97;59.51;98622.28;4398408;32;19988;-90
2021/12/06 00:43:44;;;;;;;;;;;;;;;5.98;59.51;98614.50;4397987;32;20005;-89
2021/12/06 00:46:09;;;;;;;;;;;;;;;6.09;59.52;98607.22;4397433;32;19998;-89
2021/12/06 00:48:34;;;;;;;;;;;;;;;6.23;59.53;98601.63;4397684;32;19982;-89
2021/12/06 00:51:00;;;;;;;;;;;;;;;6.12;59.51;98614.03;4397587;32;20552;-89
2021/12/06 00:53:25;;;;;;;;;;;;;;;6.11;59.51;98623.53;4396299;32;19994;-89
2021/12/06 00:55:50;;;;;;;;;;;;;;;6.35;59.52;98636.53;4396908;32;21782;-89
2021/12/06 00:58:15;;;;;;;;;;;;;;;6.14;59.52;98627.75;4397487;32;19978;-89
2021/12/06 01:00:42;;;;;;;;;;;;;;;6.15;59.52;98624.25;4397271;32;20048;-89
2021/12/06 01:03:09;;;;;;;;;;;;;;;6.16;59.52;98628.56;4397356;32;20295;-89
2021/12/06 01:05:34;;;;;;;;;;;;;;;6.23;59.52;98630.06;4397459;32;20002;-89
2021/12/06 01:08:00;;;;;;;;;;;;;;;6.20;59.53;98640.50;4398033;32;20009;-89
2021/12/06 01:10:25;;;;;;;;;;;;;;;6.23;59.53;98624.03;4397410;32;20603;-89
2021/12/06 01:12:50;;;;;;;;;;;;;;;6.25;59.53;98607.59;4397139;32;19990;-91
2021/12/06 01:15:16;;;;;;;;;;;;;;;6.17;59.52;98606.16;4397063;32;19986;-89
2021/12/06 01:17:41;;;;;;;;;;;;;;;6.11;59.51;98605.44;4397354;32;20009;-89
2021/12/06 01:20:08;;;;;;;;;;;;;;;6.01;59.51;98601.47;4397301;32;19998;-89
2021/12/06 01:22:44;;;;;;;;;;;;;;;6.20;59.53;98601.72;4397400;32;20732;-89
2021/12/06 01:25:22;;;;;;;;;;;;;;;6.19;59.52;98612.13;4397191;32;19994;-90
2021/12/06 01:28:14;;;;;;;;;;;;;;;6.10;59.52;98610.66;4410169;32;20378;-89
2021/12/06 01:41:14;;;;;;;;;;;;;;;5.91;59.51;98614.72;4388419;32;19974;-91
2021/12/06 01:43:58;;;;;;;;;;;;;;;5.80;59.50;98621.03;4396940;32;20483;-91
2021/12/06 01:46:24;;;;;;;;;;;;;;;5.67;59.49;98616.28;4397160;32;20007;-91
2021/12/06 01:48:49;;;;;;;;;;;;;;;5.67;59.49;98614.53;4396947;32;20240;-90
2021/12/06 01:51:14;;;;;;;;;;;;;;;5.58;59.49;98617.41;4398763;32;20016;-91
2021/12/06 01:53:39;;;;;;;;;;;;;;;5.48;59.49;98610.84;4397351;32;19994;-91
2021/12/06 01:56:05;;;;;;;;;;;;;;;5.35;59.47;98609.50;4397246;32;20004;-91
2021/12/06 01:58:30;;;;;;;;;;;;;;;5.08;59.46;98624.03;4409383;32;19994;-91
2021/12/06 02:00:55;;;;;;;;;;;;;;;4.84;59.44;98635.84;4396614;32;22444;-91
2021/12/06 02:03:20;;;;;;;;;;;;;;;4.74;59.44;98634.44;4396694;32;20417;-91
2021/12/06 02:05:48;;;;;;;;;;;;;;;4.75;59.44;98624.06;4396378;32;19982;-91
2021/12/06 02:08:13;;;;;;;;;;;;;;;4.67;59.44;98630.28;4398531;32;20000;-90
2021/12/06 02:10:39;;;;;;;;;;;;;;;4.62;59.43;98626.12;4396684;32;19986;-91
2021/12/06 02:13:06;;;;;;;;;;;;;;;4.48;59.42;98617.88;4396789;32;20328;-90
2021/12/06 02:18:13;;;;;;;;;;;;;;;4.48;59.42;98610.16;4409734;32;19986;-90
2021/12/06 02:20:58;;;;;;;;;;;;;;;4.34;59.41;98607.09;4398248;32;19970;-91
2021/12/06 02:23:26;;;;;;;;;;;;;;;4.12;59.40;98608.50;4397479;32;20002;-91
2021/12/06 02:25:52;;;;;;;;;;;;;;;4.29;59.42;98601.22;4397025;32;19998;-91
2021/12/06 02:28:17;;;;;;;;;;;;;;;4.36;59.42;98604.47;4396552;32;19994;-88
2021/12/06 02:30:42;;;;;;;;;;;;;;;4.42;59.42;98612.88;4396328;32;20008;-88
2021/12/06 02:33:07;;;;;;;;;;;;;;;4.46;59.42;98608.50;4396283;32;20048;-89
2021/12/06 02:35:33;;;;;;;;;;;;;;;4.43;59.43;98601.69;4396266;32;20342;-89
2021/12/06 02:37:58;;;;;;;;;;;;;;;4.48;59.42;98610.16;4396019;32;19981;-89
2021/12/06 02:40:28;;;;;;;;;;;;;;;4.44;59.43;98616.28;4408300;32;19982;-88
2021/12/06 02:42:53;;;;;;;;;;;;;;;4.29;59.42;98614.94;4396191;32;19977;-88
2021/12/06 02:45:19;;;;;;;;;;;;;;;4.25;59.41;98621.03;4396386;32;20377;-88
2021/12/06 02:47:46;;;;;;;;;;;;;;;4.26;59.41;98621.91;4396741;32;19997;-88
2021/12/06 02:50:12;;;;;;;;;;;;;;;4.14;59.41;98620.47;4395534;32;20031;-87
2021/12/06 02:52:37;;;;;;;;;;;;;;;3.97;59.39;98622.56;4395893;32;19994;-87
2021/12/06 02:55:10;;;;;;;;;;;;;;;3.90;59.39;98623.63;4396047;32;20323;-88
2021/12/06 02:57:37;;;;;;;;;;;;;;;4.10;59.41;98620.56;4396256;32;19983;-87
2021/12/06 03:00:09;;;;;;;;;;;;;;;3.94;59.39;98633.81;4396575;32;20041;-89
2021/12/06 03:02:35;;;;;;;;;;;;;;;3.96;59.40;98639.75;4396042;32;20436;-88
2021/12/06 03:05:00;;;;;;;;;;;;;;;4.21;59.41;98634.03;4395735;32;20025;-89
2021/12/06 03:07:28;;;;;;;;;;;;;;;4.07;59.40;98642.09;4395852;32;19978;-86
2021/12/06 03:09:55;;;;;;;;;;;;;;;3.81;59.38;98650.41;4395506;32;19986;-87
2021/12/06 03:12:21;;;;;;;;;;;;;;;4.12;59.40;98642.84;4395469;32;19994;-87
2021/12/06 03:14:48;;;;;;;;;;;;;;;3.94;59.39;98638.94;4395766;32;20339;-87
2021/12/06 03:17:14;;;;;;;;;;;;;;;4.08;59.40;98635.22;4396280;32;20770;-88
2021/12/06 03:19:39;;;;;;;;;;;;;;;4.29;59.42;98630.41;4398083;32;19970;-89
2021/12/06 03:22:05;;;;;;;;;;;;;;;4.18;59.41;98623.81;4397939;32;20139;-88
2021/12/06 03:24:30;;;;;;;;;;;;;;;4.26;59.41;98634.78;4410521;32;19990;-89
2021/12/06 03:26:55;;;;;;;;;;;;;;;4.20;59.40;98634.91;4397794;32;20254;-88
2021/12/06 03:29:20;;;;;;;;;;;;;;;4.16;59.41;98646.16;4397859;32;20016;-88
2021/12/06 03:31:47;;;;;;;;;;;;;;;4.10;59.41;98641.19;4397999;32;20045;-88
2021/12/06 03:34:12;;;;;;;;;;;;;;;4.11;59.40;98638.56;4397843;32;20003;-88
2021/12/06 03:36:37;;;;;;;;;;;;;;;4.03;59.40;98640.47;4398857;32;19974;-89
2021/12/06 03:39:07;;;;;;;;;;;;;;;4.11;59.40;98643.72;4397936;32;19988;-88
2021/12/06 03:41:32;;;;;;;;;;;;;;;4.21;59.41;98650.31;4397882;32;20012;-88
2021/12/06 03:43:58;;;;;;;;;;;;;;;3.99;59.41;98651.72;4397452;32;20002;-88
2021/12/06 03:46:23;;;;;;;;;;;;;;;3.81;59.39;98655.56;4398029;32;19994;-88
2021/12/06 03:48:48;;;;;;;;;;;;;;;3.99;59.40;98659.44;4397713;32;20292;-88
2021/12/06 03:51:14;;;;;;;;;;;;;;;4.10;59.40;98654.06;4397928;32;20006;-88
2021/12/06 03:53:39;;;;;;;;;;;;;;;4.05;59.40;98648.16;4397863;32;19997;-88
2021/12/06 03:56:04;;;;;;;;;;;;;;;4.15;59.41;98642.75;4397580;32;19990;-88
2021/12/06 03:58:30;;;;;;;;;;;;;;;4.01;59.40;98644.78;4398468;32;20020;-89
2021/12/06 04:00:55;;;;;;;;;;;;;;;3.78;59.39;98647.03;4410675;32;20060;-89
2021/12/06 04:03:20;;;;;;;;;;;;;;;3.65;59.38;98651.63;4399090;32;20013;-91
2021/12/06 04:05:46;;;;;;;;;;;;;;;3.64;59.38;98653.34;4398964;32;20013;-90
2021/12/06 04:08:11;;;;;;;;;;;;;;;3.80;59.39;98650.47;4397531;32;21704;-89
2021/12/06 04:10:36;;;;;;;;;;;;;;;3.88;59.39;98646.81;4397726;32;19978;-89
2021/12/06 04:13:01;;;;;;;;;;;;;;;3.97;59.39;98644.03;4397399;32;20017;-88
2021/12/06 04:15:30;;;;;;;;;;;;;;;3.83;59.38;98634.94;4397445;32;20006;-89
2021/12/06 04:17:56;;;;;;;;;;;;;;;4.01;59.40;98644.78;4398059;32;20061;-90
2021/12/06 04:20:21;;;;;;;;;;;;;;;3.83;59.38;98637.50;4398104;32;20013;-88
2021/12/06 04:22:46;;;;;;;;;;;;;;;3.70;59.38;98642.06;4397554;32;20028;-88
2021/12/06 04:25:13;;;;;;;;;;;;;;;3.58;59.38;98652.66;4397865;32;20335;-91
2021/12/06 04:27:38;;;;;;;;;;;;;;;3.66;59.38;98653.31;4397510;32;19986;-89
2021/12/06 04:30:04;;;;;;;;;;;;;;;3.39;59.37;98652.19;4397564;32;20007;-91
2021/12/06 04:32:29;;;;;;;;;;;;;;;3.53;59.38;98657.03;4397659;32;19994;-89
2021/12/06 04:34:55;;;;;;;;;;;;;;;3.60;59.37;98667.16;4396511;32;19993;-91
2021/12/06 04:37:20;;;;;;;;;;;;;;;3.48;59.38;98661.44;4399447;32;19986;-90
2021/12/06 04:39:45;;;;;;;;;;;;;;;3.37;59.36;98659.94;4397760;32;20012;-90
2021/12/06 04:42:11;;;;;;;;;;;;;;;3.57;59.38;98664.66;4397345;32;20053;-90
2021/12/06 04:44:36;;;;;;;;;;;;;;;3.70;59.38;98649.78;4397804;32;19981;-90
2021/12/06 04:47:01;;;;;;;;;;;;;;;3.62;59.38;98652.53;4397884;32;20056;-90
2021/12/06 04:49:29;;;;;;;;;;;;;;;3.60;59.37;98658.59;4398174;32;19986;-90
2021/12/06 04:51:54;;;;;;;;;;;;;;;3.50;59.37;98672.53;4399076;32;20033;-90
2021/12/06 04:54:20;;;;;;;;;;;;;;;3.53;59.38;98678.44;4398633;32;19982;-90
2021/12/06 04:56:47;;;;;;;;;;;;;;;3.49;59.37;98671.69;4397492;32;20002;-89
2021/12/06 04:59:33;;;;;;;;;;;;;;;3.46;59.37;98679.47;4397241;32;20028;-89
2021/12/06 05:01:58;;;;;;;;;;;;;;;3.59;59.37;98677.50;4397805;32;20049;-87
2021/12/06 05:04:25;;;;;;;;;;;;;;;3.59;59.37;98678.34;4397884;32;20033;-87
2021/12/06 05:06:52;;;;;;;;;;;;;;;3.49;59.37;98675.97;4398018;32;19986;-86
2021/12/06 05:09:22;;;;;;;;;;;;;;;3.56;59.37;98683.56;4398382;32;20275;-88
2021/12/06 05:11:48;;;;;;;;;;;;;;;3.52;59.37;98686.19;4398625;32;20008;-90
2021/12/06 05:14:15;;;;;;;;;;;;;;;3.55;59.38;98688.72;4398736;32;19965;-89
2021/12/06 05:16:41;;;;;;;;;;;;;;;3.53;59.38;98698.19;4398310;32;19978;-90
2021/12/06 05:19:06;;;;;;;;;;;;;;;3.34;59.36;98696.00;4397494;32;20331;-90
2021/12/06 05:21:33;;;;;;;;;;;;;;;3.51;59.37;98705.94;4397586;32;20044;-88
2021/12/06 05:23:58;;;;;;;;;;;;;;;3.45;59.36;98708.62;4397638;32;20002;-90
2021/12/06 05:26:24;;;;;;;;;;;;;;;3.47;59.37;98714.59;4410533;32;20345;-88
2021/12/06 05:28:51;;;;;;;;;;;;;;;3.53;59.38;98713.63;4397274;32;19993;-93
2021/12/06 05:31:20;;;;;;;;;;;;;;;3.57;59.37;98718.69;4398000;32;20048;-93
2021/12/06 05:33:47;;;;;;;;;;;;;;;3.55;59.38;98707.59;4397364;32;19993;-91
2021/12/06 05:36:12;;;;;;;;;;;;;;;3.58;59.38;98704.09;4397803;32;19970;-91
2021/12/06 05:38:38;;;;;;;;;;;;;;;3.74;59.38;98704.63;4397026;32;20029;-91
2021/12/06 05:41:04;;;;;;;;;;;;;;;3.82;59.38;98705.31;4397445;32;19997;-91
2021/12/06 05:43:29;;;;;;;;;;;;;;;4.00;59.40;98703.16;4397557;32;19982;-91
2021/12/06 05:45:55;;;;;;;;;;;;;;;4.11;59.40;98696.94;4397052;32;19977;-90
2021/12/06 05:48:20;;;;;;;;;;;;;;;4.26;59.41;98696.59;4397886;32;20021;-92
2021/12/06 05:50:46;;;;;;;;;;;;;;;4.12;59.40;98699.47;4396738;32;19990;-91
2021/12/06 05:53:11;;;;;;;;;;;;;;;4.31;59.42;98702.50;4409968;32;20252;-91
2021/12/06 05:55:36;;;;;;;;;;;;;;;4.50;59.43;98701.16;4396634;32;20383;-92
2021/12/06 05:58:03;;;;;;;;;;;;;;;4.41;59.42;98710.84;4397902;32;20048;-92
2021/12/06 06:00:30;;;;;;;;;;;;;;;4.32;59.41;98714.47;4399032;32;20009;-92
2021/12/06 06:02:55;;;;;;;;;;;;;;;4.39;59.42;98716.03;4397849;32;19982;-92
2021/12/06 06:05:21;;;;;;;;;;;;;;;4.28;59.42;98718.88;4399071;32;20000;-91
2021/12/06 06:07:46;;;;;;;;;;;;;;;4.10;59.41;98719.28;4400041;32;19994;-92
2021/12/06 06:10:12;;;;;;;;;;;;;;;4.13;59.41;98734.66;4399402;32;20064;-92
2021/12/06 06:12:37;;;;;;;;;;;;;;;4.14;59.41;98744.06;4396379;32;20044;-92
2021/12/06 06:15:02;;;;;;;;;;;;;;;4.09;59.40;98751.06;4397781;32;20380;-93
2021/12/06 06:17:29;;;;;;;;;;;;;;;3.84;59.39;98748.16;4396624;32;20028;-92
2021/12/06 06:19:56;;;;;;;;;;;;;;;3.91;59.40;98751.44;4398270;32;20006;-92
2021/12/06 06:22:21;;;;;;;;;;;;;;;3.94;59.40;98748.81;4396249;32;19989;-92
2021/12/06 06:24:47;;;;;;;;;;;;;;;3.98;59.41;98756.44;4396463;32;20248;-91
2021/12/06 06:27:12;;;;;;;;;;;;;;;3.96;59.40;98754.75;4396724;32;20002;-92
2021/12/06 06:29:37;;;;;;;;;;;;;;;4.17;59.41;98754.31;4396563;32;19986;-92
2021/12/06 06:32:04;;;;;;;;;;;;;;;4.15;59.41;98756.06;4399016;32;19990;-92
2021/12/06 06:34:29;;;;;;;;;;;;;;;4.17;59.41;98758.59;4396407;32;19987;-91
2021/12/06 06:36:54;;;;;;;;;;;;;;;4.05;59.41;98754.59;4396381;32;20236;-92
2021/12/06 06:39:21;;;;;;;;;;;;;;;3.99;59.40;98755.53;4409086;32;20341;-91
2021/12/06 06:41:47;;;;;;;;;;;;;;;4.08;59.41;98764.81;4396307;32;19986;-91
2021/12/06 06:44:12;;;;;;;;;;;;;;;4.02;59.40;98770.06;4396769;32;20009;-92
2021/12/06 06:46:37;;;;;;;;;;;;;;;3.96;59.39;98778.78;4398586;32;20032;-91
2021/12/06 06:49:04;;;;;;;;;;;;;;;3.88;59.39;98779.84;4398291;32;19994;-92
2021/12/06 06:51:29;;;;;;;;;;;;;;;3.67;59.38;98773.37;4409993;32;20008;-91
2021/12/06 06:53:54;;;;;;;;;;;;;;;3.90;59.40;98781.50;4410618;32;20001;-92
2021/12/06 06:56:19;;;;;;;;;;;;;;;3.67;59.38;98793.97;4398039;32;19994;-91
2021/12/06 06:58:45;;;;;;;;;;;;;;;3.66;59.38;98802.56;4397868;32;20001;-93
2021/12/06 07:01:10;;;;;;;;;;;;;;;3.82;59.39;98801.41;4398274;32;20025;-92
2021/12/06 07:03:35;;;;;;;;;;;;;;;3.85;59.39;98797.91;4398691;32;20029;-92
2021/12/06 07:06:01;;;;;;;;;;;;;;;4.00;59.40;98808.72;4398253;32;20016;-92
2021/12/06 07:08:27;;;;;;;;;;;;;;;3.88;59.39;98809.00;4396844;32;20010;-92
2021/12/06 07:10:54;;;;;;;;;;;;;;;3.86;59.39;98815.06;4398094;32;20383;-92
2021/12/06 07:13:19;;;;;;;;;;;;;;;3.89;59.39;98820.16;4398472;32;20043;-92
2021/12/06 07:15:45;;;;;;;;;;;;;;;3.95;59.39;98828.59;4396845;32;20006;-92
2021/12/06 07:18:10;;;;;;;;;;;;;;;4.04;59.40;98826.72;4396695;32;19982;-93
2021/12/06 07:20:35;;;;;;;;;;;;;;;3.93;59.39;98829.50;4396719;32;20002;-92
2021/12/06 07:23:01;;;;;;;;;;;;;;;3.81;59.38;98840.06;4396633;32;20304;-92
2021/12/06 07:25:26;;;;;;;;;;;;;;;3.81;59.38;98838.31;4397571;32;19986;-92
2021/12/06 07:27:52;;;;;;;;;;;;;;;3.81;59.38;98834.91;4399050;32;20429;-92
2021/12/06 07:30:17;;;;;;;;;;;;;;;3.94;59.39;98834.63;4397009;32;20041;-92
2021/12/06 07:32:43;;;;;;;;;;;;;;;3.82;59.39;98840.03;4397165;32;20300;-92
2021/12/06 07:35:08;;;;;;;;;;;;;;;3.85;59.40;98841.69;4397046;32;20013;-92
2021/12/06 07:37:33;;;;;;;;;;;;;;;4.03;59.40;98846.47;4397285;32;20279;-92
2021/12/06 07:39:59;;;;;;;;;;;;;;;4.02;59.40;98847.31;4396893;32;20065;-92
2021/12/06 07:42:24;;;;;;;;;;;;;;;4.20;59.42;98846.97;4397971;32;20001;-93
2021/12/06 07:44:52;;;;;;;;;;;;;;;4.11;59.40;98848.88;4401727;32;20024;-92
2021/12/06 07:47:17;;;;;;;;;;;;;;;4.26;59.41;98848.59;4397578;32;20631;-92
2021/12/06 07:49:46;;;;;;;;;;;;;;;4.24;59.41;98840.84;4396423;32;20000;-92
2021/12/06 07:52:11;;;;;;;;;;;;;;;4.32;59.41;98854.44;4396867;32;20076;-92
2021/12/06 07:54:36;;;;;;;;;;;;;;;4.31;59.42;98854.47;4396706;32;20002;-92
2021/12/06 07:57:02;;;;;;;;;;;;;;;4.15;59.41;98859.09;4397430;32;20086;-92
2021/12/06 07:59:27;;;;;;;;;;;;;;;4.14;59.41;98851.41;4398902;32;20049;-91
2021/12/06 08:01:53;;;;;;;;;;;;;;;3.91;59.40;98859.56;4414564;32;19998;-92
2021/12/06 08:04:18;;;;;;;;;;;;;;;3.79;59.39;98857.25;4404827;32;20016;-91
2021/12/06 08:06:43;;;;;;;;;;;;;;;3.88;59.39;98857.06;4397303;32;20001;-92
2021/12/06 08:09:09;;;;;;;;;;;;;;;3.99;59.41;98860.25;4397366;32;20005;-92
2021/12/06 08:11:34;;;;;;;;;;;;;;;4.00;59.40;98859.38;4397355;32;19982;-92
2021/12/06 08:13:59;;;;;;;;;;;;;;;3.91;59.40;98865.56;4396770;32;20001;-92
2021/12/06 08:16:29;;;;;;;;;;;;;;;3.87;59.39;98858.78;4398892;32;20010;-92
2021/12/06 08:18:54;;;;;;;;;;;;;;;4.00;59.40;98859.38;4398452;32;20017;-92
2021/12/06 08:21:20;;;;;;;;;;;;;;;3.74;59.38;98864.19;4397253;32;19982;-91
2021/12/06 08:23:45;;;;;;;;;;;;;;;3.88;59.39;98870.78;4399300;32;20029;-91
2021/12/06 08:26:10;;;;;;;;;;;;;;;3.92;59.40;98872.41;4398759;32;20017;-92
2021/12/06 08:28:36;;;;;;;;;;;;;;;4.10;59.40;98870.38;4399004;32;19982;-91
2021/12/06 08:31:02;;;;;;;;;;;;;;;4.11;59.41;98879.78;4397616;32;19982;-91
2021/12/06 08:33:28;;;;;;;;;;;;;;;3.95;59.39;98879.22;4402102;32;20015;-90
2021/12/06 08:35:53;;;;;;;;;;;;;;;3.81;59.38;98887.22;4396617;32;20001;-91
2021/12/06 08:38:19;;;;;;;;;;;;;;;4.03;59.40;98892.81;4396460;32;19985;-90
2021/12/06 08:40:44;;;;;;;;;;;;;;;4.05;59.41;98893.66;4396203;32;19974;-92
2021/12/06 08:43:16;;;;;;;;;;;;;;;4.12;59.40;98904.66;4396618;32;20323;-89
2021/12/06 08:45:41;;;;;;;;;;;;;;;4.04;59.40;98899.66;4397777;32;19990;-90
2021/12/06 08:48:07;;;;;;;;;;;;;;;3.87;59.39;98904.28;4396882;32;19982;-90
2021/12/06 08:50:32;;;;;;;;;;;;;;;3.80;59.39;98910.44;4399841;32;20363;-92
2021/12/06 08:52:57;;;;;;;;;;;;;;;3.90;59.39;98909.38;4396049;32;20344;-91
2021/12/06 08:55:23;;;;;;;;;;;;;;;3.92;59.40;98907.62;4408849;32;19982;-91
2021/12/06 08:57:50;;;;;;;;;;;;;;;3.96;59.40;98911.81;4396002;32;20056;-91
2021/12/06 09:00:21;;;;;;;;;;;;;;;4.07;59.40;98909.91;4396207;32;19986;-91
2021/12/06 09:02:46;;;;;;;;;;;;;;;4.23;59.42;98908.72;4396240;32;20001;-92
2021/12/06 09:05:11;;;;;;;;;;;;;;;3.82;59.38;98909.53;4397625;32;20259;-90
2021/12/06 09:07:37;;;;;;;;;;;;;;;4.06;59.40;98903.06;4397708;32;19989;-92
2021/12/06 09:10:02;;;;;;;;;;;;;;;4.12;59.40;98905.50;4395950;32;20346;-92
2021/12/06 09:12:31;;;;;;;;;;;;;;;4.12;59.40;98904.66;4395982;32;20041;-91
2021/12/06 09:14:56;;;;;;;;;;;;;;;4.12;59.40;98902.94;4395043;32;20046;-91
2021/12/06 09:17:22;;;;;;;;;;;;;;;4.22;59.41;98893.28;4396520;32;19993;-91
2021/12/06 09:19:47;;;;;;;;;;;;;;;4.34;59.41;98890.47;4396164;32;19998;-91
2021/12/06 09:22:12;;;;;;;;;;;;;;;4.45;59.42;98885.94;4396879;32;20358;-92
2021/12/06 09:24:38;;;;;;;;;;;;;;;4.61;59.43;98881.31;4383527;32;19978;-91
2021/12/06 09:27:03;;;;;;;;;;;;;;;4.72;59.44;98874.16;4395906;32;20448;-91
2021/12/06 09:29:31;;;;;;;;;;;;;;;4.65;59.44;98867.47;4395968;32;19998;-91
2021/12/06 09:31:59;;;;;;;;;;;;;;;4.87;59.45;98863.53;4396171;32;20008;-91
2021/12/06 09:34:25;;;;;;;;;;;;;;;5.00;59.45;98861.53;4396053;32;20016;-91
2021/12/06 09:36:50;;;;;;;;;;;;;;;4.97;59.45;98859.00;4394184;32;20355;-93
2021/12/06 09:39:16;;;;;;;;;;;;;;;5.02;59.46;98854.59;4397757;32;20049;-91
2021/12/06 09:41:41;;;;;;;;;;;;;;;5.10;59.46;98857.81;4393966;32;20035;-91
2021/12/06 09:44:06;;;;;;;;;;;;;;;5.01;59.46;98863.22;4394289;32;20033;-91
2021/12/06 09:46:35;;;;;;;;;;;;;;;5.19;59.47;98860.16;4400636;32;20310;-91
2021/12/06 09:49:03;;;;;;;;;;;;;;;5.25;59.47;98866.94;4393577;32;19963;-91
2021/12/06 09:51:28;;;;;;;;;;;;;;;5.43;59.48;98868.19;4393118;32;20009;-91
2021/12/06 09:53:54;;;;;;;;;;;;;;;5.26;59.47;98858.31;4395432;32;19998;-91
2021/12/06 09:56:22;;;;;;;;;;;;;;;5.01;59.46;98865.78;4395395;32;20338;-91
2021/12/06 09:58:47;;;;;;;;;;;;;;;5.04;59.46;98860.56;4393520;32;19959;-91
2021/12/06 10:01:19;;;;;;;;;;;;;;;5.17;59.46;98851.63;4392913;32;19994;-91
2021/12/06 10:03:47;;;;;;;;;;;;;;;5.14;59.46;98851.69;4393202;32;19967;-90
2021/12/06 10:06:12;;;;;;;;;;;;;;;5.21;59.46;98844.69;4396449;32;20001;-91
2021/12/06 10:08:39;;;;;;;;;;;;;;;5.07;59.45;98834.69;4394010;32;19984;-91
2021/12/06 10:11:05;;;;;;;;;;;;;;;5.06;59.46;98829.56;4393305;32;19963;-92
2021/12/06 10:13:30;;;;;;;;;;;;;;;5.08;59.45;98838.97;4393044;32;19991;-91
2021/12/06 10:15:55;;;;;;;;;;;;;;;4.98;59.45;98844.38;4392781;32;19993;-90
2021/12/06 10:18:20;;;;;;;;;;;;;;;4.98;59.45;98842.66;4393077;32;20003;-90
2021/12/06 10:20:47;;;;;;;;;;;;;;;4.91;59.45;98841.09;4392686;32;19999;-90
2021/12/06 10:23:12;;;;;;;;;;;;;;;5.11;59.46;98838.03;4396830;32;19998;-90
2021/12/06 10:25:38;;;;;;;;;;;;;;;5.06;59.46;98833.00;4405357;32;20324;-90
2021/12/06 10:28:05;;;;;;;;;;;;;;;4.87;59.46;98840.31;4392502;32;20036;-89
2021/12/06 10:30:31;;;;;;;;;;;;;;;5.15;59.46;98837.06;4393000;32;20037;-90
2021/12/06 10:33:07;;;;;;;;;;;;;;;5.25;59.47;98825.66;4392415;32;20012;-90
2021/12/06 10:35:32;;;;;;;;;;;;;;;5.34;59.47;98829.72;4392370;32;19982;-90
2021/12/06 10:37:58;;;;;;;;;;;;;;;5.35;59.47;98839.16;4393805;32;20386;-90
2021/12/06 10:40:25;;;;;;;;;;;;;;;5.41;59.48;98841.56;4394674;32;19990;-90
2021/12/06 10:42:51;;;;;;;;;;;;;;;5.42;59.48;98863.91;4393107;32;19998;-93
2021/12/06 10:45:18;;;;;;;;;;;;;;;5.36;59.47;98869.22;4392791;32;19990;-90
2021/12/06 10:47:44;;;;;;;;;;;;;;;5.38;59.47;98885.53;4392520;32;19998;-90
2021/12/06 10:50:19;;;;;;;;;;;;;;;5.36;59.47;98901.03;4405233;32;20041;-89
2021/12/06 10:52:48;;;;;;;;;;;;;;;5.45;59.48;98906.00;4392753;32;19987;-89
2021/12/06 10:55:14;;;;;;;;;;;;;;;5.51;59.48;98912.72;4395608;32;19971;-90
2021/12/06 10:57:49;;;;;;;;;;;;;;;5.52;59.48;98917.84;4393763;32;19966;-90
2021/12/06 11:00:35;;;;;;;;;;;;;;;5.35;59.47;98925.16;4394314;32;20045;-90
2021/12/06 11:03:01;;;;;;;;;;;;;;;5.32;59.48;98927.81;4392289;32;20062;-90
2021/12/06 11:05:27;;;;;;;;;;;;;;;5.24;59.46;98927.16;4392229;32;19971;-90
2021/12/06 11:07:56;;;;;;;;;;;;;;;5.31;59.48;98915.78;4392088;32;19970;-91
2021/12/06 11:10:22;;;;;;;;;;;;;;;5.26;59.47;98919.37;4392888;32;20602;-91
2021/12/06 11:12:48;;;;;;;;;;;;;;;5.29;59.47;98912.41;4397387;32;20354;-90
2021/12/06 11:15:13;;;;;;;;;;;;;;;5.31;59.47;98902.06;4392042;32;19987;-91
2021/12/06 11:17:38;;;;;;;;;;;;;;;5.48;59.48;98911.09;4405053;32;20237;-90
2021/12/06 11:20:04;;;;;;;;;;;;;;;5.21;59.46;98929.81;4392015;32;20010;-91
2021/12/06 11:22:29;;;;;;;;;;;;;;;5.24;59.46;98927.16;4391940;32;20013;-92
2021/12/06 11:24:55;;;;;;;;;;;;;;;5.31;59.46;98928.69;4393255;32;20343;-91
2021/12/06 11:27:22;;;;;;;;;;;;;;;5.44;59.48;98930.12;4398730;32;19996;-91
2021/12/06 11:30:08;;;;;;;;;;;;;;;5.45;59.48;98933.53;4400104;32;19998;-91
2021/12/06 11:32:40;;;;;;;;;;;;;;;5.67;59.49;98937.25;4391614;32;20008;-92
2021/12/06 11:35:09;;;;;;;;;;;;;;;5.86;59.50;98942.81;4391853;32;20319;-92
2021/12/06 11:37:42;;;;;;;;;;;;;;;5.63;59.49;98945.12;4392108;32;19996;-91
2021/12/06 11:40:09;;;;;;;;;;;;;;;5.76;59.50;98937.03;4394554;32;20012;-91
2021/12/06 11:42:46;;;;;;;;;;;;;;;5.54;59.49;98941.91;4395830;32;20008;-91
2021/12/06 11:45:11;;;;;;;;;;;;;;;5.77;59.50;98938.75;4399773;32;20340;-91
2021/12/06 11:47:37;;;;;;;;;;;;;;;5.99;59.51;98940.81;4394061;32;20032;-91
2021/12/06 11:50:02;;;;;;;;;;;;;;;6.01;59.51;98939.03;4394156;32;20037;-91
2021/12/06 11:52:32;;;;;;;;;;;;;;;6.05;59.51;98932.88;4394012;32;20458;-91
2021/12/06 11:55:05;;;;;;;;;;;;;;;6.06;59.52;98939.75;4394037;32;19978;-91
2021/12/06 11:57:32;;;;;;;;;;;;;;;6.13;59.51;98938.69;4394867;32;19990;-90
2021/12/06 11:59:57;;;;;;;;;;;;;;;6.24;59.52;98938.41;4395669;32;19994;-91
2021/12/06 12:02:30;;;;;;;;;;;;;;;5.99;59.51;98944.22;4398329;32;20378;-91
2021/12/06 12:05:27;;;;;;;;;;;;;;;6.11;59.51;98941.31;4393992;32;20567;-91
2021/12/06 12:07:53;;;;;;;;;;;;;;;6.10;59.52;98941.34;4376885;32;20275;-91
2021/12/06 12:10:29;;;;;;;;;;;;;;;5.97;59.51;98945.16;4394177;32;19998;-92
2021/12/06 12:12:54;;;;;;;;;;;;;;;6.11;59.51;98936.13;4394047;32;19998;-92
2021/12/06 12:15:19;;;;;;;;;;;;;;;6.09;59.51;98929.31;4394011;32;20069;-91
2021/12/06 12:17:46;;;;;;;;;;;;;;;6.01;59.51;98928.69;4397374;32;20033;-91
2021/12/06 12:20:11;;;;;;;;;;;;;;;6.09;59.52;98927.59;4395933;32;19967;-91
2021/12/06 12:22:38;;;;;;;;;;;;;;;6.00;59.51;98921.81;4393735;32;20351;-89
2021/12/06 12:25:09;;;;;;;;;;;;;;;6.02;59.51;98917.47;4393957;32;20703;-91
2021/12/06 12:27:58;;;;;;;;;;;;;;;5.83;59.50;98922.22;4393797;32;19980;-91
2021/12/06 12:30:20;;;;;;;;;;;;;;;5.86;59.50;98915.25;4403965;32;20000;-91
2021/12/06 12:32:45;;;;;;;;;;;;;;;5.82;59.50;98905.88;4395878;32;20007;-91
2021/12/06 12:35:11;;;;;;;;;;;;;;;5.86;59.50;98904.06;4397474;32;19998;-91
2021/12/06 12:37:37;;;;;;;;;;;;;;;5.99;59.51;98908.06;4393845;32;20026;-91
2021/12/06 12:40:16;;;;;;;;;;;;;;;6.09;59.52;98906.91;4393518;32;19994;-90
2021/12/06 12:42:54;;;;;;;;;;;;;;;6.09;59.52;98914.66;4393826;32;19999;-90
2021/12/06 12:45:19;;;;;;;;;;;;;;;6.19;59.52;98910.13;4394550;32;19946;-89
2021/12/06 12:47:45;;;;;;;;;;;;;;;6.18;59.52;98911.00;4394215;32;20012;-90
2021/12/06 12:50:11;;;;;;;;;;;;;;;5.95;59.51;98905.63;4395620;32;20006;-90
2021/12/06 12:52:42;;;;;;;;;;;;;;;5.94;59.51;98911.66;4396570;32;19998;-91
2021/12/06 12:55:23;;;;;;;;;;;;;;;6.11;59.51;98906.88;4393468;32;19978;-90
2021/12/06 12:57:49;;;;;;;;;;;;;;;5.86;59.50;98907.50;4381063;32;886159;-91
2021/12/06 13:00:18;;;;;;;;;;;;;;;5.82;59.50;98911.06;4393719;32;20002;-91
2021/12/06 13:02:45;;;;;;;;;;;;;;;6.02;59.51;98918.31;4393621;32;19971;-92
2021/12/06 13:05:12;;;;;;;;;;;;;;;5.90;59.51;98923.78;4408076;32;19982;-91
2021/12/06 13:07:37;;;;;;;;;;;;;;;6.02;59.51;98926.06;4396664;32;19951;-91
2021/12/06 13:10:21;;;;;;;;;;;;;;;6.06;59.52;98919.06;4394049;32;20079;-91